sensor_id;sensor_type;location;lat;lon;timestamp;P1;durP1;ratioP1;P2;durP2;ratioP2
29550;SDS011;16488;52.396;10.696;2023-04-25T00:02:24;21.48;;;6.93;;
29550;SDS011;16488;52.396;10.696;2023-04-25T00:04:50;14.40;;;6.18;;
29550;SDS011;16488;52.396;10.696;2023-04-25T00:07:16;20.90;;;6.78;;
29550;SDS011;16488;52.396;10.696;2023-04-25T00:09:42;17.77;;;6.97;;
29550;SDS011;16488;52.396;10.696;2023-04-25T00:12:08;21.90;;;6.15;;
29550;SDS011;16488;52.396;10.696;2023-04-25T00:14:33;16.70;;;6.78;;
29550;SDS011;16488;52.396;10.696;2023-04-25T00:17:00;22.80;;;6.70;;
29550;SDS011;16488;52.396;10.696;2023-04-25T00:19:27;23.02;;;6.78;;
29550;SDS011;16488;52.396;10.696;2023-04-25T00:21:54;19.52;;;6.57;;
29550;SDS011;16488;52.396;10.696;2023-04-25T00:24:20;18.17;;;7.15;;
29550;SDS011;16488;52.396;10.696;2023-04-25T00:26:46;17.27;;;6.95;;
29550;SDS011;16488;52.396;10.696;2023-04-25T00:29:11;20.08;;;8.00;;
29550;SDS011;16488;52.396;10.696;2023-04-25T00:31:37;18.45;;;7.30;;
29550;SDS011;16488;52.396;10.696;2023-04-25T00:34:02;19.45;;;7.82;;
29550;SDS011;16488;52.396;10.696;2023-04-25T00:36:28;21.85;;;8.80;;
29550;SDS011;16488;52.396;10.696;2023-04-25T00:38:54;15.63;;;7.25;;
29550;SDS011;16488;52.396;10.696;2023-04-25T00:41:20;22.50;;;8.18;;
29550;SDS011;16488;52.396;10.696;2023-04-25T00:43:45;18.45;;;7.57;;
29550;SDS011;16488;52.396;10.696;2023-04-25T00:46:12;27.50;;;10.50;;
29550;SDS011;16488;52.396;10.696;2023-04-25T00:48:38;21.83;;;9.05;;
29550;SDS011;16488;52.396;10.696;2023-04-25T00:51:03;23.20;;;7.82;;
29550;SDS011;16488;52.396;10.696;2023-04-25T00:53:29;18.95;;;8.45;;
29550;SDS011;16488;52.396;10.696;2023-04-25T00:55:57;24.15;;;7.78;;
29550;SDS011;16488;52.396;10.696;2023-04-25T00:58:23;17.23;;;8.18;;
29550;SDS011;16488;52.396;10.696;2023-04-25T01:00:49;23.55;;;8.00;;
29550;SDS011;16488;52.396;10.696;2023-04-25T01:03:17;23.25;;;6.75;;
29550;SDS011;16488;52.396;10.696;2023-04-25T01:05:44;28.13;;;7.65;;
29550;SDS011;16488;52.396;10.696;2023-04-25T01:10:36;27.92;;;9.57;;
29550;SDS011;16488;52.396;10.696;2023-04-25T01:13:02;15.40;;;7.43;;
29550;SDS011;16488;52.396;10.696;2023-04-25T01:15:28;14.55;;;6.80;;
29550;SDS011;16488;52.396;10.696;2023-04-25T01:17:54;19.35;;;6.78;;
29550;SDS011;16488;52.396;10.696;2023-04-25T01:20:23;21.55;;;8.20;;
29550;SDS011;16488;52.396;10.696;2023-04-25T01:22:50;20.55;;;7.25;;
29550;SDS011;16488;52.396;10.696;2023-04-25T01:25:17;20.58;;;8.27;;
29550;SDS011;16488;52.396;10.696;2023-04-25T01:27:44;20.10;;;8.00;;
29550;SDS011;16488;52.396;10.696;2023-04-25T01:30:10;14.25;;;7.32;;
29550;SDS011;16488;52.396;10.696;2023-04-25T01:32:36;16.42;;;8.32;;
29550;SDS011;16488;52.396;10.696;2023-04-25T01:35:08;18.38;;;7.57;;
29550;SDS011;16488;52.396;10.696;2023-04-25T01:37:37;20.40;;;7.85;;
29550;SDS011;16488;52.396;10.696;2023-04-25T01:40:04;20.85;;;7.88;;
29550;SDS011;16488;52.396;10.696;2023-04-25T01:42:32;15.30;;;7.15;;
29550;SDS011;16488;52.396;10.696;2023-04-25T01:44:58;22.58;;;7.78;;
29550;SDS011;16488;52.396;10.696;2023-04-25T01:47:23;20.00;;;7.35;;
29550;SDS011;16488;52.396;10.696;2023-04-25T01:49:49;16.42;;;7.25;;
29550;SDS011;16488;52.396;10.696;2023-04-25T01:52:15;21.88;;;7.43;;
29550;SDS011;16488;52.396;10.696;2023-04-25T01:54:41;16.63;;;7.72;;
29550;SDS011;16488;52.396;10.696;2023-04-25T01:57:09;18.33;;;7.57;;
29550;SDS011;16488;52.396;10.696;2023-04-25T02:02:01;14.02;;;5.95;;
29550;SDS011;16488;52.396;10.696;2023-04-25T02:04:29;14.25;;;7.20;;
29550;SDS011;16488;52.396;10.696;2023-04-25T02:09:20;20.10;;;7.90;;
29550;SDS011;16488;52.396;10.696;2023-04-25T02:11:46;20.90;;;7.53;;
29550;SDS011;16488;52.396;10.696;2023-04-25T02:14:12;16.17;;;6.38;;
29550;SDS011;16488;52.396;10.696;2023-04-25T02:16:37;17.65;;;6.75;;
29550;SDS011;16488;52.396;10.696;2023-04-25T02:19:03;26.60;;;6.93;;
29550;SDS011;16488;52.396;10.696;2023-04-25T02:21:29;16.55;;;6.50;;
29550;SDS011;16488;52.396;10.696;2023-04-25T02:23:55;31.80;;;8.27;;
29550;SDS011;16488;52.396;10.696;2023-04-25T02:26:21;21.48;;;8.68;;
29550;SDS011;16488;52.396;10.696;2023-04-25T02:28:48;19.95;;;6.78;;
29550;SDS011;16488;52.396;10.696;2023-04-25T02:31:15;23.17;;;7.85;;
29550;SDS011;16488;52.396;10.696;2023-04-25T02:33:41;20.48;;;8.63;;
29550;SDS011;16488;52.396;10.696;2023-04-25T02:36:06;23.95;;;9.77;;
29550;SDS011;16488;52.396;10.696;2023-04-25T02:38:32;17.70;;;8.00;;
29550;SDS011;16488;52.396;10.696;2023-04-25T02:40:58;16.80;;;8.00;;
29550;SDS011;16488;52.396;10.696;2023-04-25T02:43:23;23.33;;;7.93;;
29550;SDS011;16488;52.396;10.696;2023-04-25T02:45:49;15.40;;;7.55;;
29550;SDS011;16488;52.396;10.696;2023-04-25T02:48:15;21.17;;;8.38;;
29550;SDS011;16488;52.396;10.696;2023-04-25T02:50:40;17.60;;;8.13;;
29550;SDS011;16488;52.396;10.696;2023-04-25T02:53:06;22.92;;;9.18;;
29550;SDS011;16488;52.396;10.696;2023-04-25T02:55:32;34.53;;;10.18;;
29550;SDS011;16488;52.396;10.696;2023-04-25T02:57:57;14.90;;;8.07;;
29550;SDS011;16488;52.396;10.696;2023-04-25T03:00:23;20.67;;;9.82;;
29550;SDS011;16488;52.396;10.696;2023-04-25T03:02:49;24.52;;;9.23;;
29550;SDS011;16488;52.396;10.696;2023-04-25T03:05:15;30.45;;;9.75;;
29550;SDS011;16488;52.396;10.696;2023-04-25T03:07:41;27.65;;;10.38;;
29550;SDS011;16488;52.396;10.696;2023-04-25T03:10:08;23.30;;;9.52;;
29550;SDS011;16488;52.396;10.696;2023-04-25T03:12:35;22.15;;;9.60;;
29550;SDS011;16488;52.396;10.696;2023-04-25T03:15:00;24.42;;;10.32;;
29550;SDS011;16488;52.396;10.696;2023-04-25T03:17:26;26.52;;;10.32;;
29550;SDS011;16488;52.396;10.696;2023-04-25T03:19:51;37.13;;;11.40;;
29550;SDS011;16488;52.396;10.696;2023-04-25T03:22:17;23.77;;;10.15;;
29550;SDS011;16488;52.396;10.696;2023-04-25T03:24:43;22.75;;;10.75;;
29550;SDS011;16488;52.396;10.696;2023-04-25T03:27:08;30.48;;;11.02;;
29550;SDS011;16488;52.396;10.696;2023-04-25T03:29:34;35.83;;;12.77;;
29550;SDS011;16488;52.396;10.696;2023-04-25T03:32:00;28.38;;;11.63;;
29550;SDS011;16488;52.396;10.696;2023-04-25T03:34:26;29.13;;;12.32;;
29550;SDS011;16488;52.396;10.696;2023-04-25T03:36:51;33.17;;;12.15;;
29550;SDS011;16488;52.396;10.696;2023-04-25T03:39:17;21.35;;;11.57;;
29550;SDS011;16488;52.396;10.696;2023-04-25T03:41:42;27.30;;;12.18;;
29550;SDS011;16488;52.396;10.696;2023-04-25T03:44:08;30.25;;;12.57;;
29550;SDS011;16488;52.396;10.696;2023-04-25T03:46:33;28.85;;;11.95;;
29550;SDS011;16488;52.396;10.696;2023-04-25T03:48:59;27.55;;;10.75;;
29550;SDS011;16488;52.396;10.696;2023-04-25T03:53:54;34.15;;;9.88;;
29550;SDS011;16488;52.396;10.696;2023-04-25T03:56:20;25.52;;;9.10;;
29550;SDS011;16488;52.396;10.696;2023-04-25T03:58:46;34.70;;;9.48;;
29550;SDS011;16488;52.396;10.696;2023-04-25T04:01:11;35.28;;;8.50;;
29550;SDS011;16488;52.396;10.696;2023-04-25T04:03:37;27.48;;;8.30;;
29550;SDS011;16488;52.396;10.696;2023-04-25T04:06:03;27.98;;;8.95;;
29550;SDS011;16488;52.396;10.696;2023-04-25T04:08:30;25.05;;;7.78;;
29550;SDS011;16488;52.396;10.696;2023-04-25T04:10:57;34.55;;;8.50;;
29550;SDS011;16488;52.396;10.696;2023-04-25T04:15:48;35.72;;;7.13;;
29550;SDS011;16488;52.396;10.696;2023-04-25T04:18:14;30.13;;;6.97;;
29550;SDS011;16488;52.396;10.696;2023-04-25T04:20:39;31.48;;;6.95;;
29550;SDS011;16488;52.396;10.696;2023-04-25T04:23:05;26.42;;;6.95;;
29550;SDS011;16488;52.396;10.696;2023-04-25T04:25:31;28.25;;;6.97;;
29550;SDS011;16488;52.396;10.696;2023-04-25T04:27:56;23.80;;;6.50;;
29550;SDS011;16488;52.396;10.696;2023-04-25T04:30:23;31.13;;;6.60;;
29550;SDS011;16488;52.396;10.696;2023-04-25T04:32:50;39.00;;;7.45;;
29550;SDS011;16488;52.396;10.696;2023-04-25T04:35:16;40.15;;;7.55;;
29550;SDS011;16488;52.396;10.696;2023-04-25T04:37:42;24.65;;;6.22;;
29550;SDS011;16488;52.396;10.696;2023-04-25T04:40:09;27.10;;;6.53;;
29550;SDS011;16488;52.396;10.696;2023-04-25T04:42:34;29.42;;;6.43;;
29550;SDS011;16488;52.396;10.696;2023-04-25T04:47:27;39.78;;;7.32;;
29550;SDS011;16488;52.396;10.696;2023-04-25T04:49:57;30.50;;;6.57;;
29550;SDS011;16488;52.396;10.696;2023-04-25T04:52:22;28.73;;;7.38;;
29550;SDS011;16488;52.396;10.696;2023-04-25T04:54:48;34.10;;;6.45;;
29550;SDS011;16488;52.396;10.696;2023-04-25T04:57:14;28.42;;;6.82;;
29550;SDS011;16488;52.396;10.696;2023-04-25T04:59:39;33.92;;;7.57;;
29550;SDS011;16488;52.396;10.696;2023-04-25T05:02:05;41.83;;;8.98;;
29550;SDS011;16488;52.396;10.696;2023-04-25T05:04:30;20.08;;;5.13;;
29550;SDS011;16488;52.396;10.696;2023-04-25T05:06:56;30.02;;;6.18;;
29550;SDS011;16488;52.396;10.696;2023-04-25T05:09:22;35.67;;;8.25;;
29550;SDS011;16488;52.396;10.696;2023-04-25T05:11:50;42.40;;;9.70;;
29550;SDS011;16488;52.396;10.696;2023-04-25T05:14:17;40.75;;;6.80;;
29550;SDS011;16488;52.396;10.696;2023-04-25T05:16:42;29.48;;;7.20;;
29550;SDS011;16488;52.396;10.696;2023-04-25T05:19:09;41.35;;;7.30;;
29550;SDS011;16488;52.396;10.696;2023-04-25T05:21:35;39.08;;;6.28;;
29550;SDS011;16488;52.396;10.696;2023-04-25T05:24:01;38.53;;;6.47;;
29550;SDS011;16488;52.396;10.696;2023-04-25T05:26:26;36.63;;;7.20;;
29550;SDS011;16488;52.396;10.696;2023-04-25T05:28:56;33.58;;;6.45;;
29550;SDS011;16488;52.396;10.696;2023-04-25T05:31:22;35.58;;;6.53;;
29550;SDS011;16488;52.396;10.696;2023-04-25T05:33:47;24.60;;;6.32;;
29550;SDS011;16488;52.396;10.696;2023-04-25T05:36:13;31.20;;;6.10;;
29550;SDS011;16488;52.396;10.696;2023-04-25T05:38:39;40.25;;;6.07;;
29550;SDS011;16488;52.396;10.696;2023-04-25T05:41:04;25.80;;;5.80;;
29550;SDS011;16488;52.396;10.696;2023-04-25T05:43:30;34.78;;;7.38;;
29550;SDS011;16488;52.396;10.696;2023-04-25T05:45:55;34.78;;;7.97;;
29550;SDS011;16488;52.396;10.696;2023-04-25T05:48:21;22.73;;;5.82;;
29550;SDS011;16488;52.396;10.696;2023-04-25T05:50:47;29.70;;;5.88;;
29550;SDS011;16488;52.396;10.696;2023-04-25T05:53:13;27.55;;;6.35;;
29550;SDS011;16488;52.396;10.696;2023-04-25T05:55:38;26.63;;;6.35;;
29550;SDS011;16488;52.396;10.696;2023-04-25T05:58:04;38.97;;;6.90;;
29550;SDS011;16488;52.396;10.696;2023-04-25T06:00:30;29.15;;;6.07;;
29550;SDS011;16488;52.396;10.696;2023-04-25T06:02:56;22.15;;;6.45;;
29550;SDS011;16488;52.396;10.696;2023-04-25T06:05:22;41.60;;;5.88;;
29550;SDS011;16488;52.396;10.696;2023-04-25T06:07:47;25.40;;;6.30;;
29550;SDS011;16488;52.396;10.696;2023-04-25T06:10:13;35.88;;;7.40;;
29550;SDS011;16488;52.396;10.696;2023-04-25T06:12:39;30.38;;;7.45;;
29550;SDS011;16488;52.396;10.696;2023-04-25T06:15:05;37.35;;;6.63;;
29550;SDS011;16488;52.396;10.696;2023-04-25T06:17:32;24.65;;;6.22;;
29550;SDS011;16488;52.396;10.696;2023-04-25T06:19:58;25.75;;;5.68;;
29550;SDS011;16488;52.396;10.696;2023-04-25T06:22:23;30.75;;;7.00;;
29550;SDS011;16488;52.396;10.696;2023-04-25T06:24:49;29.67;;;6.05;;
29550;SDS011;16488;52.396;10.696;2023-04-25T06:27:14;37.10;;;6.40;;
29550;SDS011;16488;52.396;10.696;2023-04-25T06:29:40;40.40;;;6.40;;
29550;SDS011;16488;52.396;10.696;2023-04-25T06:32:05;29.75;;;6.30;;
29550;SDS011;16488;52.396;10.696;2023-04-25T06:34:31;27.33;;;6.20;;
29550;SDS011;16488;52.396;10.696;2023-04-25T06:36:56;27.38;;;6.47;;
29550;SDS011;16488;52.396;10.696;2023-04-25T06:39:22;40.63;;;6.97;;
29550;SDS011;16488;52.396;10.696;2023-04-25T06:41:49;35.38;;;6.57;;
29550;SDS011;16488;52.396;10.696;2023-04-25T06:44:15;34.38;;;6.55;;
29550;SDS011;16488;52.396;10.696;2023-04-25T06:46:41;37.30;;;6.60;;
29550;SDS011;16488;52.396;10.696;2023-04-25T06:49:07;26.33;;;5.07;;
29550;SDS011;16488;52.396;10.696;2023-04-25T06:51:32;21.52;;;6.30;;
29550;SDS011;16488;52.396;10.696;2023-04-25T06:53:58;19.13;;;4.80;;
29550;SDS011;16488;52.396;10.696;2023-04-25T06:56:24;27.23;;;5.60;;
29550;SDS011;16488;52.396;10.696;2023-04-25T06:58:50;34.15;;;4.95;;
29550;SDS011;16488;52.396;10.696;2023-04-25T07:01:16;26.67;;;5.63;;
29550;SDS011;16488;52.396;10.696;2023-04-25T07:03:41;23.10;;;6.05;;
29550;SDS011;16488;52.396;10.696;2023-04-25T07:06:07;28.00;;;5.57;;
29550;SDS011;16488;52.396;10.696;2023-04-25T07:08:33;18.80;;;4.45;;
29550;SDS011;16488;52.396;10.696;2023-04-25T07:10:59;20.58;;;4.07;;
29550;SDS011;16488;52.396;10.696;2023-04-25T07:13:24;20.65;;;4.28;;
29550;SDS011;16488;52.396;10.696;2023-04-25T07:15:50;18.45;;;4.10;;
29550;SDS011;16488;52.396;10.696;2023-04-25T07:18:16;18.73;;;4.43;;
29550;SDS011;16488;52.396;10.696;2023-04-25T07:20:41;18.85;;;4.18;;
29550;SDS011;16488;52.396;10.696;2023-04-25T07:23:07;21.17;;;3.83;;
29550;SDS011;16488;52.396;10.696;2023-04-25T07:25:32;21.70;;;3.60;;
29550;SDS011;16488;52.396;10.696;2023-04-25T07:27:58;20.52;;;4.72;;
29550;SDS011;16488;52.396;10.696;2023-04-25T07:30:24;24.35;;;4.68;;
29550;SDS011;16488;52.396;10.696;2023-04-25T07:32:49;25.60;;;5.03;;
29550;SDS011;16488;52.396;10.696;2023-04-25T07:35:16;21.35;;;5.20;;
29550;SDS011;16488;52.396;10.696;2023-04-25T07:37:42;29.10;;;4.38;;
29550;SDS011;16488;52.396;10.696;2023-04-25T07:40:08;19.60;;;3.95;;
29550;SDS011;16488;52.396;10.696;2023-04-25T07:42:34;16.73;;;3.90;;
29550;SDS011;16488;52.396;10.696;2023-04-25T07:45:00;16.83;;;5.38;;
29550;SDS011;16488;52.396;10.696;2023-04-25T07:49:52;16.92;;;4.30;;
29550;SDS011;16488;52.396;10.696;2023-04-25T07:52:17;19.17;;;3.63;;
29550;SDS011;16488;52.396;10.696;2023-04-25T07:54:43;18.75;;;4.15;;
29550;SDS011;16488;52.396;10.696;2023-04-25T07:57:09;13.90;;;4.10;;
29550;SDS011;16488;52.396;10.696;2023-04-25T07:59:34;19.30;;;5.55;;
29550;SDS011;16488;52.396;10.696;2023-04-25T08:02:00;30.23;;;4.97;;
29550;SDS011;16488;52.396;10.696;2023-04-25T08:04:27;24.90;;;5.10;;
29550;SDS011;16488;52.396;10.696;2023-04-25T08:06:53;15.60;;;4.18;;
29550;SDS011;16488;52.396;10.696;2023-04-25T08:09:19;11.93;;;3.33;;
29550;SDS011;16488;52.396;10.696;2023-04-25T08:11:45;18.95;;;4.68;;
29550;SDS011;16488;52.396;10.696;2023-04-25T08:14:11;23.92;;;4.22;;
29550;SDS011;16488;52.396;10.696;2023-04-25T08:16:37;24.00;;;3.92;;
29550;SDS011;16488;52.396;10.696;2023-04-25T08:19:03;19.00;;;4.13;;
29550;SDS011;16488;52.396;10.696;2023-04-25T08:21:29;25.98;;;6.05;;
29550;SDS011;16488;52.396;10.696;2023-04-25T08:23:56;18.17;;;4.88;;
29550;SDS011;16488;52.396;10.696;2023-04-25T08:26:23;20.80;;;4.65;;
29550;SDS011;16488;52.396;10.696;2023-04-25T08:28:51;18.88;;;4.25;;
29550;SDS011;16488;52.396;10.696;2023-04-25T08:31:17;15.02;;;3.88;;
29550;SDS011;16488;52.396;10.696;2023-04-25T08:33:43;24.48;;;5.13;;
29550;SDS011;16488;52.396;10.696;2023-04-25T08:36:10;22.92;;;4.82;;
29550;SDS011;16488;52.396;10.696;2023-04-25T08:38:35;17.35;;;4.97;;
29550;SDS011;16488;52.396;10.696;2023-04-25T08:41:01;20.10;;;4.88;;
29550;SDS011;16488;52.396;10.696;2023-04-25T08:43:27;20.17;;;5.22;;
29550;SDS011;16488;52.396;10.696;2023-04-25T08:45:54;14.70;;;3.67;;
29550;SDS011;16488;52.396;10.696;2023-04-25T08:48:25;16.92;;;4.28;;
29550;SDS011;16488;52.396;10.696;2023-04-25T08:50:53;11.30;;;3.50;;
29550;SDS011;16488;52.396;10.696;2023-04-25T08:53:28;19.05;;;3.83;;
29550;SDS011;16488;52.396;10.696;2023-04-25T08:55:55;15.88;;;5.20;;
29550;SDS011;16488;52.396;10.696;2023-04-25T08:58:22;31.90;;;5.13;;
29550;SDS011;16488;52.396;10.696;2023-04-25T09:00:48;20.90;;;4.43;;
29550;SDS011;16488;52.396;10.696;2023-04-25T09:03:15;18.67;;;3.88;;
29550;SDS011;16488;52.396;10.696;2023-04-25T09:05:41;10.77;;;3.63;;
29550;SDS011;16488;52.396;10.696;2023-04-25T09:08:07;21.90;;;4.05;;
29550;SDS011;16488;52.396;10.696;2023-04-25T09:10:33;28.85;;;4.30;;
29550;SDS011;16488;52.396;10.696;2023-04-25T09:13:09;12.10;;;3.63;;
29550;SDS011;16488;52.396;10.696;2023-04-25T09:15:48;12.48;;;4.60;;
29550;SDS011;16488;52.396;10.696;2023-04-25T09:18:26;13.98;;;4.18;;
29550;SDS011;16488;52.396;10.696;2023-04-25T09:20:54;6.70;;;3.00;;
29550;SDS011;16488;52.396;10.696;2023-04-25T09:23:21;13.25;;;3.22;;
29550;SDS011;16488;52.396;10.696;2023-04-25T09:25:48;20.05;;;3.85;;
29550;SDS011;16488;52.396;10.696;2023-04-25T09:28:27;19.73;;;3.30;;
29550;SDS011;16488;52.396;10.696;2023-04-25T09:30:54;9.95;;;3.42;;
29550;SDS011;16488;52.396;10.696;2023-04-25T09:33:26;7.47;;;2.78;;
29550;SDS011;16488;52.396;10.696;2023-04-25T09:36:03;13.13;;;3.60;;
29550;SDS011;16488;52.396;10.696;2023-04-25T09:38:53;13.43;;;3.17;;
29550;SDS011;16488;52.396;10.696;2023-04-25T09:41:22;14.73;;;3.10;;
29550;SDS011;16488;52.396;10.696;2023-04-25T09:43:49;19.95;;;3.58;;
29550;SDS011;16488;52.396;10.696;2023-04-25T09:46:15;13.27;;;3.08;;
29550;SDS011;16488;52.396;10.696;2023-04-25T09:48:47;14.30;;;3.88;;
29550;SDS011;16488;52.396;10.696;2023-04-25T09:51:14;13.77;;;3.13;;
29550;SDS011;16488;52.396;10.696;2023-04-25T09:53:41;15.38;;;3.33;;
29550;SDS011;16488;52.396;10.696;2023-04-25T09:56:09;15.85;;;3.05;;
29550;SDS011;16488;52.396;10.696;2023-04-25T09:58:37;11.85;;;2.78;;
29550;SDS011;16488;52.396;10.696;2023-04-25T10:01:04;11.48;;;2.85;;
29550;SDS011;16488;52.396;10.696;2023-04-25T10:03:35;18.50;;;3.15;;
29550;SDS011;16488;52.396;10.696;2023-04-25T10:06:03;7.78;;;2.70;;
29550;SDS011;16488;52.396;10.696;2023-04-25T10:08:33;9.07;;;2.70;;
29550;SDS011;16488;52.396;10.696;2023-04-25T10:11:03;17.50;;;3.42;;
29550;SDS011;16488;52.396;10.696;2023-04-25T10:13:33;18.98;;;2.95;;
29550;SDS011;16488;52.396;10.696;2023-04-25T10:16:00;14.60;;;3.00;;
29550;SDS011;16488;52.396;10.696;2023-04-25T10:18:28;12.80;;;3.00;;
29550;SDS011;16488;52.396;10.696;2023-04-25T10:21:01;15.30;;;3.15;;
29550;SDS011;16488;52.396;10.696;2023-04-25T10:23:29;25.55;;;4.07;;
29550;SDS011;16488;52.396;10.696;2023-04-25T10:25:56;17.80;;;3.35;;
29550;SDS011;16488;52.396;10.696;2023-04-25T10:28:23;12.23;;;3.42;;
29550;SDS011;16488;52.396;10.696;2023-04-25T10:30:58;11.95;;;3.00;;
29550;SDS011;16488;52.396;10.696;2023-04-25T10:33:37;11.13;;;2.65;;
29550;SDS011;16488;52.396;10.696;2023-04-25T10:38:48;12.27;;;3.03;;
29550;SDS011;16488;52.396;10.696;2023-04-25T10:41:18;17.90;;;2.88;;
29550;SDS011;16488;52.396;10.696;2023-04-25T10:43:48;13.52;;;2.60;;
29550;SDS011;16488;52.396;10.696;2023-04-25T10:46:24;9.65;;;3.00;;
29550;SDS011;16488;52.396;10.696;2023-04-25T10:49:00;11.05;;;2.65;;
29550;SDS011;16488;52.396;10.696;2023-04-25T10:58:48;14.13;;;2.70;;
29550;SDS011;16488;52.396;10.696;2023-04-25T11:01:14;17.50;;;2.67;;
29550;SDS011;16488;52.396;10.696;2023-04-25T11:03:44;15.45;;;2.80;;
29550;SDS011;16488;52.396;10.696;2023-04-25T11:06:23;7.35;;;2.75;;
29550;SDS011;16488;52.396;10.696;2023-04-25T11:08:52;9.63;;;2.65;;
29550;SDS011;16488;52.396;10.696;2023-04-25T11:11:18;11.35;;;3.55;;
29550;SDS011;16488;52.396;10.696;2023-04-25T11:13:47;11.38;;;2.53;;
29550;SDS011;16488;52.396;10.696;2023-04-25T11:16:14;10.35;;;2.67;;
29550;SDS011;16488;52.396;10.696;2023-04-25T11:18:41;8.40;;;1.98;;
29550;SDS011;16488;52.396;10.696;2023-04-25T11:21:07;6.50;;;1.85;;
29550;SDS011;16488;52.396;10.696;2023-04-25T11:23:33;11.30;;;2.90;;
29550;SDS011;16488;52.396;10.696;2023-04-25T11:25:58;12.63;;;2.40;;
29550;SDS011;16488;52.396;10.696;2023-04-25T11:28:26;10.80;;;3.13;;
29550;SDS011;16488;52.396;10.696;2023-04-25T11:30:52;13.02;;;3.05;;
29550;SDS011;16488;52.396;10.696;2023-04-25T11:33:18;12.45;;;2.45;;
29550;SDS011;16488;52.396;10.696;2023-04-25T11:35:48;6.93;;;2.20;;
29550;SDS011;16488;52.396;10.696;2023-04-25T11:38:14;14.50;;;2.90;;
29550;SDS011;16488;52.396;10.696;2023-04-25T11:40:39;8.38;;;2.30;;
29550;SDS011;16488;52.396;10.696;2023-04-25T11:43:06;9.95;;;2.15;;
29550;SDS011;16488;52.396;10.696;2023-04-25T11:45:32;7.18;;;2.30;;
29550;SDS011;16488;52.396;10.696;2023-04-25T11:47:57;6.10;;;2.58;;
29550;SDS011;16488;52.396;10.696;2023-04-25T11:50:23;11.20;;;2.70;;
29550;SDS011;16488;52.396;10.696;2023-04-25T11:52:49;11.27;;;2.75;;
29550;SDS011;16488;52.396;10.696;2023-04-25T11:55:19;12.13;;;2.17;;
29550;SDS011;16488;52.396;10.696;2023-04-25T11:57:46;10.02;;;3.78;;
29550;SDS011;16488;52.396;10.696;2023-04-25T12:00:16;7.82;;;2.67;;
29550;SDS011;16488;52.396;10.696;2023-04-25T12:02:44;12.70;;;2.70;;
29550;SDS011;16488;52.396;10.696;2023-04-25T12:05:23;16.70;;;3.80;;
29550;SDS011;16488;52.396;10.696;2023-04-25T12:07:52;10.45;;;2.85;;
29550;SDS011;16488;52.396;10.696;2023-04-25T12:10:18;11.55;;;3.30;;
29550;SDS011;16488;52.396;10.696;2023-04-25T12:12:45;5.32;;;2.45;;
29550;SDS011;16488;52.396;10.696;2023-04-25T12:15:13;9.23;;;2.65;;
29550;SDS011;16488;52.396;10.696;2023-04-25T12:17:40;9.70;;;2.25;;
29550;SDS011;16488;52.396;10.696;2023-04-25T12:20:10;11.40;;;2.45;;
29550;SDS011;16488;52.396;10.696;2023-04-25T12:22:40;4.78;;;2.53;;
29550;SDS011;16488;52.396;10.696;2023-04-25T12:25:10;7.03;;;1.77;;
29550;SDS011;16488;52.396;10.696;2023-04-25T12:27:37;10.00;;;2.10;;
29550;SDS011;16488;52.396;10.696;2023-04-25T12:30:03;7.03;;;2.13;;
29550;SDS011;16488;52.396;10.696;2023-04-25T12:32:29;8.68;;;1.67;;
29550;SDS011;16488;52.396;10.696;2023-04-25T12:34:54;10.57;;;2.42;;
29550;SDS011;16488;52.396;10.696;2023-04-25T12:37:21;12.63;;;1.80;;
29550;SDS011;16488;52.396;10.696;2023-04-25T12:39:46;10.90;;;2.42;;
29550;SDS011;16488;52.396;10.696;2023-04-25T12:42:12;3.42;;;1.58;;
29550;SDS011;16488;52.396;10.696;2023-04-25T12:44:38;7.28;;;1.92;;
29550;SDS011;16488;52.396;10.696;2023-04-25T12:47:04;8.48;;;1.58;;
29550;SDS011;16488;52.396;10.696;2023-04-25T12:51:56;4.82;;;1.52;;
29550;SDS011;16488;52.396;10.696;2023-04-25T12:54:21;11.75;;;2.00;;
29550;SDS011;16488;52.396;10.696;2023-04-25T12:56:47;11.05;;;2.47;;
29550;SDS011;16488;52.396;10.696;2023-04-25T12:59:12;11.63;;;2.00;;
29550;SDS011;16488;52.396;10.696;2023-04-25T13:01:38;5.37;;;1.50;;
29550;SDS011;16488;52.396;10.696;2023-04-25T13:04:04;7.38;;;2.13;;
29550;SDS011;16488;52.396;10.696;2023-04-25T13:06:29;8.85;;;2.90;;
29550;SDS011;16488;52.396;10.696;2023-04-25T13:08:55;6.53;;;2.70;;
29550;SDS011;16488;52.396;10.696;2023-04-25T13:11:21;7.05;;;1.75;;
29550;SDS011;16488;52.396;10.696;2023-04-25T13:13:47;4.55;;;1.73;;
29550;SDS011;16488;52.396;10.696;2023-04-25T13:16:12;12.25;;;1.80;;
29550;SDS011;16488;52.396;10.696;2023-04-25T13:18:41;4.90;;;1.45;;
29550;SDS011;16488;52.396;10.696;2023-04-25T13:21:06;4.37;;;1.57;;
29550;SDS011;16488;52.396;10.696;2023-04-25T13:23:33;5.05;;;1.50;;
29550;SDS011;16488;52.396;10.696;2023-04-25T13:25:59;1.97;;;1.03;;
29550;SDS011;16488;52.396;10.696;2023-04-25T13:28:26;2.70;;;1.40;;
29550;SDS011;16488;52.396;10.696;2023-04-25T13:30:52;3.90;;;1.13;;
29550;SDS011;16488;52.396;10.696;2023-04-25T13:33:18;3.25;;;1.33;;
29550;SDS011;16488;52.396;10.696;2023-04-25T13:38:12;8.10;;;1.95;;
29550;SDS011;16488;52.396;10.696;2023-04-25T13:40:38;4.47;;;1.23;;
29550;SDS011;16488;52.396;10.696;2023-04-25T13:43:04;7.68;;;1.90;;
29550;SDS011;16488;52.396;10.696;2023-04-25T13:45:31;7.55;;;1.52;;
29550;SDS011;16488;52.396;10.696;2023-04-25T13:47:57;6.10;;;1.52;;
29550;SDS011;16488;52.396;10.696;2023-04-25T13:50:22;4.72;;;1.65;;
29550;SDS011;16488;52.396;10.696;2023-04-25T13:52:48;9.77;;;1.38;;
29550;SDS011;16488;52.396;10.696;2023-04-25T13:55:14;9.32;;;1.33;;
29550;SDS011;16488;52.396;10.696;2023-04-25T13:57:39;2.40;;;1.33;;
29550;SDS011;16488;52.396;10.696;2023-04-25T14:00:05;5.85;;;1.27;;
29550;SDS011;16488;52.396;10.696;2023-04-25T14:02:36;4.70;;;1.08;;
29550;SDS011;16488;52.396;10.696;2023-04-25T14:05:03;6.80;;;1.30;;
29550;SDS011;16488;52.396;10.696;2023-04-25T14:07:29;4.72;;;1.58;;
29550;SDS011;16488;52.396;10.696;2023-04-25T14:09:55;3.33;;;1.02;;
29550;SDS011;16488;52.396;10.696;2023-04-25T14:12:22;5.55;;;1.63;;
29550;SDS011;16488;52.396;10.696;2023-04-25T14:14:48;4.90;;;1.80;;
29550;SDS011;16488;52.396;10.696;2023-04-25T14:17:14;7.80;;;1.10;;
29550;SDS011;16488;52.396;10.696;2023-04-25T14:19:39;4.60;;;1.30;;
29550;SDS011;16488;52.396;10.696;2023-04-25T14:22:08;3.90;;;1.13;;
29550;SDS011;16488;52.396;10.696;2023-04-25T14:24:34;2.72;;;0.95;;
29550;SDS011;16488;52.396;10.696;2023-04-25T14:27:00;1.75;;;1.15;;
29550;SDS011;16488;52.396;10.696;2023-04-25T14:29:26;4.32;;;1.23;;
29550;SDS011;16488;52.396;10.696;2023-04-25T14:31:51;3.63;;;1.43;;
29550;SDS011;16488;52.396;10.696;2023-04-25T14:34:18;5.72;;;1.55;;
29550;SDS011;16488;52.396;10.696;2023-04-25T14:36:44;8.73;;;1.73;;
29550;SDS011;16488;52.396;10.696;2023-04-25T14:39:09;9.60;;;1.60;;
29550;SDS011;16488;52.396;10.696;2023-04-25T14:41:35;4.28;;;1.35;;
29550;SDS011;16488;52.396;10.696;2023-04-25T14:44:00;7.93;;;1.42;;
29550;SDS011;16488;52.396;10.696;2023-04-25T14:46:26;4.75;;;1.58;;
29550;SDS011;16488;52.396;10.696;2023-04-25T14:48:52;5.95;;;1.65;;
29550;SDS011;16488;52.396;10.696;2023-04-25T14:51:18;1.58;;;1.02;;
29550;SDS011;16488;52.396;10.696;2023-04-25T14:53:43;4.85;;;2.63;;